Latest Weather Observations for Lucas Heights

IDN60901

Issued at 10:41 am EDT Friday 27 March 2015 (issued every 10 minutes, with the page automatically refreshed every 10 minutes)

About weather observations | Map of Sydney area stations | Latest observations for Sydney area | Other Formats
Station Details ID: 066023 Name: LUCAS HEIGHTS AWS Lat: -34.05 Lon: 150.98 Height: 140.0 m
Data from the previous 72 hours. | See also: Recent months for locations in New South Wales
Date/Time
EDT
Tmp

°C
App
Tmp
°C
Dew
Point
°C
Rel
Hum
%
Delta-T

°C
Wind Press
QNH
hPa
Press
MSL
hPa
Rain
since
9 am
mm
Dir
 
Spd
km/h
Gust
km/h
Spd
kts
Gust
kts
27/10:30am 17.6 11.5 5.0 43 6.1 W 26 37 14 20 1020.3 - 0.0
27/10:15am 17.4 11.8 5.3 45 5.9 W 24 43 13 23 1020.2 - 0.0
27/10:00am 16.8 11.1 5.0 45 5.7 W 24 37 13 20 1020.1 - 0.0
27/09:45am 16.4 11.4 4.8 46 5.5 W 20 33 11 18 1020.1 - 0.0
27/09:30am 16.0 10.7 4.9 47 5.3 W 22 37 12 20 1020.0 - 0.0
27/09:15am 15.4 10.5 4.9 49 5.0 W 20 33 11 18 1019.9 - 0.0
27/09:00am 14.7 9.9 4.5 50 4.8 W 19 28 10 15 1019.9 - 0.0
27/08:45am 13.9 9.0 4.1 51 4.5 W 19 24 10 13 1020.0 - 0.0
27/08:30am 13.3 9.1 4.0 53 4.3 W 15 24 8 13 1019.9 - 0.0
27/08:15am 12.6 8.3 3.2 52 4.2 W 15 22 8 12 1019.9 - 0.0
27/08:00am 12.4 7.2 2.6 51 4.3 WSW 19 22 10 12 1019.9 - 0.0
27/07:45am 12.2 6.4 2.4 51 4.3 WSW 22 24 12 13 1019.9 - 0.0
27/07:30am 12.5 5.6 2.3 50 4.5 WSW 28 33 15 18 1019.7 - 0.0
27/07:15am 12.9 4.6 2.3 48 4.7 WSW 35 44 19 24 1019.3 - 0.0
27/07:00am 12.9 4.3 2.5 49 4.6 WSW 37 46 20 25 1018.9 - 0.0
27/06:45am 12.9 4.6 2.4 49 4.6 WSW 35 43 19 23 1018.8 - 0.0
27/06:30am 12.9 5.0 2.3 48 4.7 WSW 33 43 18 23 1018.8 - 0.0
27/06:15am 12.8 6.6 2.4 49 4.6 WSW 24 33 13 18 1018.9 - 0.0
27/06:00am 12.3 7.8 2.0 49 4.5 WSW 15 28 8 15 1018.9 - 0.0
27/05:45am 12.9 7.7 2.3 48 4.7 W 19 32 10 17 1018.9 - 0.0
27/05:30am 12.9 5.9 2.0 47 4.8 WSW 28 35 15 19 1018.8 - 0.0
27/05:15am 12.4 5.0 2.0 49 4.5 WSW 30 33 16 18 1018.8 - 0.0
27/05:00am 11.8 5.9 2.0 51 4.2 WSW 22 32 12 17 1018.8 - 0.0
27/04:45am 12.0 6.6 1.4 48 4.5 W 19 22 10 12 1018.9 - 0.0
27/04:30am 12.5 7.5 1.3 46 4.8 W 17 22 9 12 1019.0 - 0.0
27/04:15am 13.1 7.7 1.3 44 5.1 W 19 28 10 15 1019.1 - 0.0
27/04:00am 13.0 7.7 1.8 46 4.9 W 19 24 10 13 1019.2 - 0.0
27/03:45am 12.8 7.4 1.2 45 5.0 WSW 19 20 10 11 1019.4 - 0.0
27/03:30am 12.6 7.0 1.2 45 4.9 WSW 20 24 11 13 1019.5 - 0.0
27/03:15am 13.0 7.7 1.7 46 4.9 WSW 19 22 10 12 1019.6 - 0.0
27/03:00am 12.9 8.3 1.6 46 4.9 W 15 22 8 12 1019.6 - 0.0
27/02:45am 13.2 9.3 0.9 43 5.2 W 11 17 6 9 1019.7 - 0.0
27/02:30am 13.9 9.2 1.0 41 5.6 W 15 20 8 11 1019.8 - 0.0
27/02:15am 14.5 9.9 1.3 40 5.7 W 15 20 8 11 1019.8 - 0.0
27/02:00am 14.8 9.7 1.0 39 6.0 W 17 22 9 12 1019.9 - 0.0
27/01:45am 15.3 11.0 0.9 37 6.3 W 13 20 7 11 1020.0 - 0.0
27/01:30am 15.4 10.0 1.1 38 6.3 W 19 24 10 13 1020.0 - 0.0
27/01:15am 15.3 9.9 1.1 38 6.2 W 19 24 10 13 1020.2 - 0.0
27/01:00am 15.4 11.2 1.5 39 6.1 W 13 20 7 11 1020.3 - 0.0
27/12:45am 15.7 11.8 1.4 38 6.3 WSW 11 17 6 9 1020.3 - 0.0
27/12:30am 15.6 12.5 1.4 38 6.3 WSW 7 17 4 9 1020.2 - 0.0
27/12:15am 16.1 13.2 1.2 36 6.6 SSW 6 9 3 5 1020.1 - 0.0
27/12:00am 16.9 11.9 1.2 34 7.0 WSW 17 39 9 21 1019.8 - 0.0
 
Date/Time
EDT
Tmp

°C
App
Tmp
°C
Dew
Point
°C
Rel
Hum
%
Delta-T

°C
Wind Press
QNH
hPa
Press
MSL
hPa
Rain
since
9 am
mm
Dir
 
Spd
km/h
Gust
km/h
Spd
kts
Gust
kts
26/11:45pm 17.3 9.8 1.4 34 7.1 WSW 30 43 16 23 1019.6 - 0.0
26/11:30pm 17.2 10.2 2.0 36 6.9 WSW 28 39 15 21 1019.5 - 0.0
26/11:15pm 17.2 10.4 3.2 39 6.5 WSW 28 39 15 21 1019.5 - 0.0
26/11:00pm 17.3 10.7 4.4 42 6.1 SW 28 41 15 22 1019.4 - 0.0
26/10:45pm 17.8 11.7 4.8 42 6.3 SW 26 33 14 18 1019.5 - 0.0
26/10:30pm 18.5 12.0 4.5 39 6.7 WSW 28 37 15 20 1019.4 - 0.0
26/10:15pm 18.6 11.4 5.2 41 6.5 WSW 32 43 17 23 1019.3 - 0.0
26/10:00pm 18.4 12.3 6.4 45 6.0 SW 28 37 15 20 1019.1 - 0.0
26/09:45pm 18.5 13.2 6.7 46 5.9 SW 24 33 13 18 1018.8 - 0.0
26/09:30pm 18.5 13.6 6.8 46 5.9 SW 22 28 12 15 1018.7 - 0.0
26/09:15pm 18.8 14.2 6.7 45 6.1 SW 20 26 11 14 1018.4 - 0.0
26/09:00pm 19.3 14.7 6.7 44 6.4 SW 20 24 11 13 1018.2 - 0.0
26/08:45pm 19.5 15.1 6.6 43 6.5 SW 19 26 10 14 1018.0 - 0.0
26/08:30pm 19.7 15.3 6.5 42 6.7 WSW 19 22 10 12 1017.7 - 0.0
26/08:15pm 20.1 16.4 6.4 41 6.9 WSW 15 19 8 10 1017.4 - 0.0
26/08:00pm 20.5 17.2 6.3 39 7.2 WSW 13 17 7 9 1017.1 - 0.0
26/07:45pm 20.8 17.9 6.3 39 7.3 SW 11 17 6 9 1016.9 - 0.0
26/07:30pm 21.4 18.1 6.3 37 7.7 WSW 13 17 7 9 1016.7 - 0.0
26/07:15pm 22.1 18.0 6.2 35 8.1 WSW 17 22 9 12 1016.4 - 0.0
26/07:00pm 22.8 18.8 6.5 35 8.4 WSW 17 24 9 13 1016.1 - 0.0
26/06:45pm 23.2 18.6 6.4 33 8.7 WSW 20 28 11 15 1015.9 - 0.0
26/06:30pm 23.8 19.4 6.7 33 8.9 WSW 19 26 10 14 1015.7 - 0.0
26/06:15pm 24.1 20.6 7.2 33 8.9 W 15 28 8 15 1015.5 - 0.0
26/06:00pm 24.0 20.5 7.2 34 8.8 WSW 15 24 8 13 1015.4 - 0.0
26/05:45pm 23.9 19.4 7.0 33 8.8 WSW 20 26 11 14 1015.2 - 0.0
26/05:30pm 24.3 20.1 7.6 34 8.8 WSW 19 26 10 14 1015.0 - 0.0
26/05:15pm 24.3 20.6 7.8 34 8.8 WSW 17 28 9 15 1014.9 - 0.0
26/05:00pm 25.1 21.7 9.0 36 8.8 WSW 17 24 9 13 1014.7 - 0.0
26/04:45pm 25.2 22.3 9.7 37 8.6 W 15 22 8 12 1014.7 - 0.0
26/04:30pm 25.1 22.3 10.0 38 8.4 W 15 22 8 12 1014.7 - 0.0
26/04:15pm 25.2 24.1 10.8 40 8.1 W 7 13 4 7 1014.8 - 0.0
26/04:00pm 25.1 22.8 10.5 39 8.2 W 13 22 7 12 1014.8 - 0.0
26/03:45pm 25.1 23.6 10.5 39 8.2 W 9 17 5 9 1014.9 - 0.0
26/03:30pm 25.0 23.1 10.6 40 8.1 WSW 11 20 6 11 1015.0 - 0.0
26/03:15pm 24.9 22.6 10.5 40 8.1 W 13 22 7 12 1015.1 - 0.0
26/03:00pm 24.9 22.7 10.7 40 8.0 WNW 13 22 7 12 1015.2 - 0.0
26/02:45pm 24.6 22.3 10.5 41 7.9 W 13 24 7 13 1015.3 - 0.0
26/02:30pm 24.2 21.4 9.9 40 7.9 W 15 24 8 13 1015.5 - 0.0
26/02:15pm 24.3 21.6 10.2 41 7.8 WSW 15 24 8 13 1015.6 - 0.0
26/02:00pm 24.2 21.0 9.8 40 7.9 W 17 30 9 16 1015.8 - 0.0
26/01:45pm 24.0 21.1 9.5 39 7.9 WNW 15 24 8 13 1016.0 - 0.0
26/01:30pm 23.9 20.5 9.3 39 8.0 W 17 28 9 15 1016.1 - 0.0
26/01:15pm 24.0 21.2 9.9 41 7.8 W 15 28 8 15 1016.3 - 0.0
26/01:00pm 23.6 20.7 9.7 41 7.6 W 15 24 8 13 1016.4 - 0.0
26/12:45pm 23.7 20.4 9.7 41 7.7 W 17 30 9 16 1016.6 - 0.0
26/12:30pm 23.6 20.4 9.9 42 7.5 W 17 26 9 14 1016.7 - 0.0
26/12:15pm 23.3 20.3 10.5 44 7.1 W 17 24 9 13 1016.8 - 0.0
26/12:00pm 23.0 20.6 11.5 48 6.5 W 15 22 8 12 1016.9 - 0.0
26/11:45am 22.4 19.7 11.7 50 6.0 W 17 24 9 13 1017.1 - 0.0
26/11:30am 22.3 20.4 11.8 51 5.9 W 13 22 7 12 1017.3 - 0.0
26/11:15am 21.9 19.9 11.5 51 5.8 W 13 22 7 12 1017.4 - 0.0
26/11:00am 21.6 19.3 11.7 53 5.6 WSW 15 20 8 11 1017.5 - 0.0
26/10:45am 21.1 17.9 11.4 54 5.4 WSW 19 24 10 13 1017.7 - 0.0
26/10:30am 20.9 17.5 11.1 53 5.4 WSW 20 28 11 15 1017.8 - 0.0
26/10:15am 20.5 17.3 11.3 55 5.1 WSW 19 26 10 14 1017.7 - 0.0
26/10:00am 20.4 17.9 12.2 59 4.6 WSW 17 28 9 15 1017.8 - 0.0
26/09:45am 19.9 17.0 12.2 61 4.3 SW 19 24 10 13 1017.8 - 0.0
26/09:30am 19.7 17.0 12.8 64 3.9 SW 19 24 10 13 1017.9 - 0.0
26/09:15am 19.2 18.1 14.3 73 2.8 SW 13 20 7 11 1017.8 - 0.0
26/09:00am 18.8 17.7 15.2 79 2.1 SW 15 19 8 10 1017.8 - 0.0
26/08:45am 18.3 17.6 15.4 83 1.7 SW 13 20 7 11 1017.7 - 0.0
26/08:30am 17.8 17.0 15.2 85 1.5 SW 13 19 7 10 1017.6 - 0.0
26/08:15am 17.5 16.8 15.3 87 1.3 WSW 13 17 7 9 1017.5 - 0.0
26/08:00am 16.6 16.1 14.8 89 1.0 W 11 13 6 7 1017.4 - 0.0
26/07:45am 15.6 14.8 13.9 90 1.0 W 11 13 6 7 1017.3 - 0.0
26/07:30am 15.3 14.3 13.5 89 1.0 WSW 11 13 6 7 1017.2 - 0.0
26/07:15am 15.6 15.0 13.5 87 1.2 W 9 9 5 5 1017.2 - 0.0
26/07:00am 16.0 15.9 13.9 87 1.2 W 7 13 4 7 1017.0 - 0.0
26/06:45am 16.1 15.7 14.1 88 1.1 W 9 13 5 7 1017.0 - 0.0
26/06:30am 15.7 15.1 13.6 87 1.2 W 9 13 5 7 1016.9 - 0.0
26/06:15am 15.8 14.9 13.6 87 1.2 WNW 11 15 6 8 1016.8 - 0.0
26/06:00am 15.7 15.1 13.4 86 1.3 W 9 13 5 7 1016.7 - 0.0
26/05:45am 15.9 14.9 13.4 85 1.4 W 11 15 6 8 1016.7 - 0.0
26/05:30am 16.5 16.0 13.8 84 1.5 W 9 13 5 7 1016.6 - 0.0
26/05:15am 16.7 15.9 14.0 84 1.5 W 11 13 6 7 1016.7 - 0.0
26/05:00am 16.5 15.7 14.0 85 1.4 W 11 13 6 7 1016.7 - 0.0
26/04:45am 16.3 15.8 13.7 84 1.5 W 9 13 5 7 1016.7 - 0.0
26/04:30am 16.6 16.5 14.0 84 1.5 W 7 11 4 6 1016.7 - 0.0
26/04:15am 16.8 16.8 14.2 85 1.5 W 7 13 4 7 1016.8 - 0.0
26/04:00am 16.5 16.0 13.9 84 1.5 W 9 11 5 6 1016.7 - 0.0
26/03:45am 16.7 16.2 13.9 83 1.6 W 9 11 5 6 1016.7 - 0.0
26/03:30am 16.9 16.1 14.1 83 1.6 W 11 13 6 7 1016.8 - 0.0
26/03:15am 16.9 15.8 14.2 84 1.6 W 13 15 7 8 1017.0 - 0.0
26/03:00am 16.5 15.7 14.0 85 1.4 W 11 15 6 8 1017.1 - 0.0
26/02:45am 16.2 15.3 13.6 84 1.5 W 11 13 6 7 1017.3 - 0.0
26/02:30am 16.8 16.4 14.1 84 1.5 W 9 13 5 7 1017.4 - 0.0
26/02:15am 17.0 16.4 14.6 86 1.4 W 11 13 6 7 1017.4 - 0.0
26/02:00am 16.2 15.8 14.0 87 1.3 W 9 13 5 7 1017.4 - 0.0
26/01:45am 16.5 16.7 14.1 86 1.4 WNW 6 7 3 4 1017.4 - 0.0
26/01:30am 17.1 17.4 14.4 84 1.6 WNW 6 9 3 5 1017.4 - 0.0
26/01:15am 17.0 16.7 14.5 85 1.4 NW 9 11 5 6 1017.5 - 0.0
26/01:00am 16.8 16.9 14.5 86 1.3 NW 7 9 4 5 1017.5 - 0.0
26/12:45am 16.6 16.8 14.3 86 1.3 NNW 6 9 3 5 1017.8 - 0.0
26/12:30am 16.2 16.3 13.8 86 1.4 NNE 6 7 3 4 1017.9 - 0.0
26/12:15am 16.2 16.6 13.7 85 1.4 NE 4 6 2 3 1018.0 - 0.0
26/12:00am 16.5 16.6 13.9 84 1.5 NNE 6 7 3 4 1018.1 - 0.0
 
Date/Time
EDT
Tmp

°C
App
Tmp
°C
Dew
Point
°C
Rel
Hum
%
Delta-T

°C
Wind Press
QNH
hPa
Press
MSL
hPa
Rain
since
9 am
mm
Dir
 
Spd
km/h
Gust
km/h
Spd
kts
Gust
kts
25/11:45pm 16.5 16.6 13.9 84 1.5 NE 6 7 3 4 1018.2 - 0.0
25/11:30pm 16.2 16.0 13.6 84 1.5 NE 7 9 4 5 1018.2 - 0.0
25/11:15pm 16.1 15.8 13.4 84 1.5 NE 7 9 4 5 1018.2 - 0.0
25/11:00pm 16.2 15.5 13.2 82 1.7 ENE 9 11 5 6 1018.2 - 0.0
25/10:45pm 17.1 16.6 13.8 81 1.9 ENE 9 11 5 6 1018.3 - 0.0
25/10:30pm 17.2 17.1 14.0 81 1.8 ENE 7 13 4 7 1018.5 - 0.0
25/10:15pm 16.6 16.4 13.5 82 1.8 ENE 7 9 4 5 1018.5 - 0.0
25/10:00pm 16.5 15.8 13.3 81 1.8 E 9 11 5 6 1018.4 - 0.0
25/09:45pm 16.8 15.8 13.3 80 2.0 E 11 13 6 7 1018.3 - 0.0
25/09:30pm 16.9 15.9 13.4 80 2.0 E 11 13 6 7 1018.3 - 0.0
25/09:15pm 17.2 16.2 13.5 79 2.1 E 11 13 6 7 1018.3 - 0.0
25/09:00pm 17.4 16.1 13.6 78 2.2 E 13 17 7 9 1018.1 - 0.0
25/08:45pm 17.6 16.3 13.6 77 2.3 E 13 17 7 9 1017.8 - 0.0
25/08:30pm 17.9 16.6 13.8 77 2.3 E 13 17 7 9 1017.6 - 0.0
25/08:15pm 17.9 16.3 13.8 77 2.3 E 15 19 8 10 1017.5 - 0.0
25/08:00pm 18.0 16.7 13.8 76 2.4 E 13 17 7 9 1017.4 - 0.0
25/07:45pm 18.1 16.8 13.8 76 2.5 E 13 17 7 9 1017.2 - 0.0
25/07:30pm 18.3 17.1 13.9 75 2.5 E 13 17 7 9 1017.2 - 0.0
25/07:15pm 18.6 17.4 14.0 74 2.7 E 13 19 7 10 1017.1 - 0.0
25/07:00pm 18.9 17.7 14.0 73 2.8 ESE 13 19 7 10 1017.0 - 0.0
25/06:45pm 19.3 17.8 14.1 72 3.0 ESE 15 22 8 12 1016.9 - 0.0
25/06:30pm 19.6 18.1 14.1 70 3.2 ESE 15 22 8 12 1016.9 - 0.0
25/06:15pm 19.8 18.2 13.9 69 3.4 ESE 15 24 8 13 1016.8 - 0.0
25/06:00pm 20.1 18.1 14.0 68 3.5 ESE 17 24 9 13 1016.8 - 0.0
25/05:45pm 19.8 18.2 14.0 69 3.4 SE 15 20 8 11 1016.8 - 0.0
25/05:30pm 19.7 18.5 13.9 69 3.4 SE 13 20 7 11 1016.7 - 0.0
25/05:15pm 20.0 18.4 13.9 68 3.5 ESE 15 22 8 12 1016.6 - 0.0
25/05:00pm 19.9 17.9 14.0 69 3.4 SE 17 24 9 13 1016.6 - 0.0
25/04:45pm 20.0 17.7 14.0 68 3.5 SE 19 28 10 15 1016.5 - 0.0
25/04:30pm 20.6 18.8 14.5 68 3.6 SE 17 26 9 14 1016.4 - 0.0
25/04:15pm 20.9 18.9 15.0 69 3.5 SE 19 28 10 15 1016.4 - 0.0
25/04:00pm 20.8 18.6 14.8 68 3.5 SE 20 30 11 16 1016.4 - 0.0
25/03:45pm 21.3 19.6 15.7 70 3.4 SSE 19 28 10 15 1016.5 - 0.0
25/03:30pm 20.4 18.5 15.3 72 3.0 SSE 19 28 10 15 1016.4 - 0.0
25/03:15pm 20.4 17.8 15.0 71 3.2 SSE 22 30 12 16 1016.4 - 0.0
25/03:00pm 20.8 18.9 15.1 70 3.4 SE 19 32 10 17 1016.5 - 0.0
25/02:45pm 21.0 19.1 15.2 69 3.5 SSE 19 28 10 15 1016.6 - 0.0
25/02:30pm 20.2 18.1 14.6 70 3.3 SSE 19 26 10 14 1016.6 - 0.0
25/02:15pm 20.2 18.9 14.8 71 3.2 SSE 15 24 8 13 1016.8 - 0.0
25/02:00pm 20.5 18.9 14.9 70 3.3 SSE 17 32 9 17 1016.9 - 0.0
25/01:45pm 21.4 19.5 15.2 68 3.7 S 19 30 10 16 1016.8 - 0.0
25/01:30pm 21.3 20.2 15.3 68 3.6 SSE 15 26 8 14 1017.1 - 0.0
25/01:15pm 20.6 18.6 15.0 70 3.3 SSE 19 24 10 13 1017.3 - 0.0
25/01:00pm 20.5 18.1 14.5 68 3.5 SE 20 26 11 14 1017.3 - 0.0
25/12:45pm 20.6 19.4 15.1 70 3.3 SSE 15 24 8 13 1017.5 - 0.0
25/12:30pm 20.4 18.7 14.6 69 3.4 SSE 17 28 9 15 1017.6 - 0.0
25/12:15pm 20.4 18.4 14.9 70 3.2 SSE 19 28 10 15 1017.6 - 0.0
25/12:00pm 20.2 18.1 14.6 70 3.3 SSE 19 30 10 16 1017.5 - 0.0
25/11:45am 20.4 18.8 15.0 71 3.2 SSE 17 26 9 14 1017.5 - 0.0
25/11:30am 20.1 18.0 14.7 71 3.2 SSE 19 30 10 16 1017.4 - 0.0
25/11:15am 19.7 17.9 14.5 72 3.0 SSE 17 24 9 13 1017.4 - 0.0
25/11:00am 19.6 17.2 14.4 72 3.0 SSE 20 32 11 17 1017.5 - 0.0
25/10:45am 19.8 17.7 14.6 72 3.0 SSE 19 28 10 15 1017.5 - 0.0
25/10:30am 19.6 17.4 14.5 72 3.0 SSE 19 28 10 15 1017.6 - 0.0
25/10:15am 19.7 18.1 14.9 74 2.8 S 17 30 9 16 1017.5 - 0.0
25/10:00am 19.1 18.5 14.7 75 2.6 S 11 22 6 12 1017.3 - 0.0
25/09:45am 18.9 18.5 15.1 78 2.2 S 11 20 6 11 1017.2 - 0.0
25/09:30am 18.2 18.4 14.7 80 2.0 SSW 7 15 4 8 1017.2 - 0.0
25/09:15am 17.6 17.3 14.3 81 1.9 SW 9 15 5 8 1017.1 - 0.0
25/09:00am 17.0 15.9 14.2 83 1.6 SSW 13 20 7 11 1016.8 - 9.4
25/08:45am 16.3 15.1 13.9 86 1.4 SSW 13 19 7 10 1016.7 - 9.4
25/08:30am 15.8 14.8 13.5 86 1.3 SSW 11 17 6 9 1016.4 - 9.4
25/08:15am 15.3 13.9 13.4 88 1.1 SSW 13 19 7 10 1016.3 - 9.4
25/08:00am 14.8 13.3 13.1 89 0.9 SSW 13 17 7 9 1015.9 - 9.4
25/07:45am 14.4 13.2 12.8 90 0.9 S 11 17 6 9 1015.7 - 9.4
25/07:30am 14.1 12.4 12.5 90 0.9 S 13 19 7 10 1015.5 - 9.4
25/07:15am 14.1 12.4 12.5 90 0.9 S 13 22 7 12 1015.2 - 9.4
25/07:00am 14.0 11.9 12.5 91 0.8 S 15 22 8 12 1015.0 - 9.4
25/06:45am 14.1 12.0 12.5 90 0.9 S 15 26 8 14 1014.7 - 9.4
25/06:30am 14.2 12.2 12.6 90 0.9 S 15 20 8 11 1014.6 - 9.4
25/06:15am 14.3 11.9 12.8 91 0.8 S 17 24 9 13 1014.5 - 9.4
25/06:00am 14.3 11.6 12.8 91 0.8 S 19 24 10 13 1014.4 - 9.4
25/05:45am 14.0 12.0 12.6 91 0.8 S 15 20 8 11 1014.3 - 9.4
25/05:30am 13.9 12.2 12.5 91 0.8 S 13 19 7 10 1014.2 - 9.4
25/05:15am 13.9 11.8 12.4 91 0.8 SSW 15 19 8 10 1014.1 - 9.4
25/05:00am 13.9 12.2 12.4 91 0.8 S 13 17 7 9 1014.1 - 9.4
25/04:45am 14.0 12.7 12.4 90 0.9 SSW 11 17 6 9 1014.0 - 9.4
25/04:30am 13.9 12.5 12.1 89 1.0 SSW 11 19 6 10 1013.9 - 9.4
25/04:15am 14.1 11.2 12.2 88 1.0 SW 19 26 10 14 1013.9 - 9.4
25/04:00am 14.3 10.5 12.3 88 1.1 SW 24 28 13 15 1013.8 - 9.4
25/03:45am 14.7 11.3 12.5 87 1.2 SW 22 24 12 13 1013.8 - 9.4
25/03:30am 14.9 11.9 12.6 86 1.3 SSW 20 24 11 13 1013.8 - 9.4
25/03:15am 15.0 12.2 12.6 85 1.3 SSW 19 20 10 11 1013.9 - 9.4
25/03:00am 15.2 12.8 12.8 85 1.3 SSW 17 22 9 12 1013.8 - 9.4
25/02:45am 15.5 12.6 13.0 85 1.4 SSW 20 24 11 13 1013.7 - 9.4
25/02:30am 16.0 13.6 13.7 86 1.3 SSW 19 24 10 13 1013.7 - 9.4
25/02:15am 16.4 13.7 14.6 89 1.0 SSW 22 28 12 15 1013.6 - 9.4
25/02:00am 16.6 14.5 15.1 91 0.9 SW 20 24 11 13 1013.5 - 9.4
25/01:45am 16.7 14.3 15.4 92 0.8 SSW 22 28 12 15 1013.4 - 9.4
25/01:30am 16.7 14.9 15.4 92 0.8 SSW 19 22 10 12 1013.3 - 9.4
25/01:15am 16.4 14.4 15.0 91 0.8 SSW 19 22 10 12 1013.3 - 9.4
25/01:00am 16.7 15.3 15.5 93 0.7 SSW 17 20 9 11 1013.2 - 9.4
25/12:45am 16.8 15.2 15.9 94 0.5 SSW 19 22 10 12 1013.1 - 9.4
25/12:30am 17.3 15.9 16.5 95 0.5 SW 19 22 10 12 1013.1 - 9.4
25/12:15am 17.6 16.4 17.0 96 0.4 SSW 19 22 10 12 1013.1 - 9.4
25/12:00am 18.0 18.4 17.3 96 0.4 SSW 11 19 6 10 1013.1 - 9.4
 
Date/Time
EDT
Tmp

°C
App
Tmp
°C
Dew
Point
°C
Rel
Hum
%
Delta-T

°C
Wind Press
QNH
hPa
Press
MSL
hPa
Rain
since
9 am
mm
Dir
 
Spd
km/h
Gust
km/h
Spd
kts
Gust
kts
24/11:45pm 18.1 19.4 17.5 96 0.4 SSW 7 13 4 7 1013.1 - 9.4
24/11:30pm 18.2 18.8 17.6 96 0.4 SW 11 19 6 10 1013.1 - 9.4
24/11:15pm 18.0 18.5 17.4 96 0.4 SSW 11 17 6 9 1013.0 - 9.4
24/11:00pm 17.8 19.1 17.2 96 0.4 SSW 6 11 3 6 1012.6 - 9.4
24/10:45pm 18.0 19.4 17.3 96 0.4 S 6 11 3 6 1012.5 - 9.4
24/10:30pm 18.1 19.0 17.5 96 0.4 S 9 13 5 7 1012.4 - 9.4
24/10:15pm 18.2 19.1 17.6 96 0.4 S 9 13 5 7 1012.2 - 9.4
24/10:00pm 18.3 19.7 17.7 96 0.4 S 7 9 4 5 1012.2 - 9.4
24/09:45pm 18.4 19.8 17.7 96 0.4 S 7 9 4 5 1012.2 - 9.4
24/09:30pm 18.4 19.9 17.7 96 0.4 S 6 9 3 5 1012.2 - 9.4
24/09:15pm 18.4 19.4 17.7 96 0.4 S 9 13 5 7 1012.0 - 9.4
24/09:00pm 18.4 19.4 17.7 96 0.4 S 9 15 5 8 1011.9 - 9.4
24/08:45pm 18.4 19.4 17.8 96 0.4 SSE 9 13 5 7 1011.6 - 9.4
24/08:30pm 18.5 19.5 17.8 96 0.4 SE 9 13 5 7 1011.3 - 9.4
24/08:15pm 18.4 19.4 17.7 96 0.4 SSE 9 13 5 7 1011.2 - 9.4
24/08:00pm 18.5 19.1 17.8 96 0.4 SSE 11 15 6 8 1011.0 - 9.4
24/07:45pm 18.5 19.1 17.8 96 0.4 SSE 11 17 6 9 1010.9 - 9.4
24/07:30pm 18.6 18.5 17.8 95 0.5 SSE 15 19 8 10 1010.7 - 9.4
24/07:15pm 18.6 18.9 17.9 96 0.4 SSE 13 19 7 10 1010.3 - 9.4
24/07:00pm 18.7 19.0 17.9 95 0.5 SSE 13 17 7 9 1010.2 - 9.4
24/06:45pm 18.7 18.6 17.9 95 0.5 SSE 15 22 8 12 1009.9 - 9.2
24/06:30pm 18.8 18.4 18.0 95 0.5 S 17 22 9 12 1009.8 - 8.6
24/06:15pm 19.0 19.0 18.2 95 0.5 SSE 15 22 8 12 1009.6 - 8.1
24/06:00pm 19.1 19.2 18.3 95 0.5 S 15 19 8 10 1009.4 - 7.9
24/05:45pm 19.2 19.3 18.4 95 0.5 SSE 15 24 8 13 1009.2 - 7.9
24/05:30pm 19.5 19.7 18.6 94 0.6 SSE 15 22 8 12 1009.5 - 7.9
24/05:15pm 19.8 20.6 19.0 95 0.5 SSE 13 19 7 10 1009.5 - 7.9
24/05:00pm 19.9 21.1 19.1 95 0.5 SSE 11 15 6 8 1009.4 - 7.9
24/04:45pm 19.9 21.4 19.0 95 0.6 SE 9 13 5 7 1009.3 - 7.9
24/04:30pm 19.8 20.9 18.8 94 0.6 SE 11 17 6 9 1009.3 - 7.9
24/04:15pm 19.9 21.1 19.0 95 0.6 SE 11 17 6 9 1009.6 - 7.4
24/04:00pm 20.3 21.9 19.2 93 0.7 SE 9 13 5 7 1009.7 - 6.3
24/03:45pm 20.4 22.1 19.4 94 0.6 E 9 19 5 10 1009.8 - 5.2
24/03:30pm 20.2 20.7 19.2 94 0.6 ENE 15 26 8 14 1010.1 - 4.5
24/03:15pm 20.2 21.0 19.1 93 0.7 ESE 13 20 7 11 1010.6 - 4.0
24/03:00pm 20.4 21.3 19.3 93 0.7 ESE 13 19 7 10 1010.5 - 3.8
24/02:45pm 20.6 22.0 19.5 93 0.7 E 11 17 6 9 1010.5 - 3.6
24/02:30pm 20.4 21.3 19.3 93 0.7 ESE 13 19 7 10 1010.5 - 3.4
24/02:15pm 20.6 21.6 19.4 93 0.8 ESE 13 19 7 10 1010.5 - 2.9
24/02:00pm 20.7 22.0 19.4 92 0.8 ESE 11 20 6 11 1010.8 - 2.7
24/01:45pm 20.7 21.6 19.2 91 1.0 SE 13 19 7 10 1010.9 - 2.3
24/01:30pm 20.9 22.1 19.0 89 1.2 SE 11 17 6 9 1011.4 - 1.8
24/01:15pm 21.4 22.1 18.8 85 1.6 SE 13 19 7 10 1011.3 - 0.9
24/01:00pm 22.2 23.0 19.1 82 2.0 ESE 13 19 7 10 1011.3 - 0.2
24/12:45pm 22.5 22.8 19.6 84 1.9 ESE 17 24 9 13 1010.9 - 0.2
24/12:30pm 22.9 23.8 20.1 84 1.8 ESE 15 22 8 12 1011.1 - 0.2
24/12:15pm 23.0 23.5 20.1 84 1.9 SE 17 24 9 13 1011.2 - 0.2
24/12:00pm 23.0 23.7 20.5 86 1.6 SE 17 26 9 14 1011.5 - 0.2
24/11:45am 22.9 23.6 20.5 86 1.6 SE 17 24 9 13 1011.6 - 0.2
24/11:30am 22.7 23.4 20.4 87 1.5 SE 17 26 9 14 1011.7 - 0.2
24/11:15am 22.6 23.2 20.2 86 1.6 ESE 17 22 9 12 1011.7 - 0.0
24/11:00am 22.5 22.7 20.1 86 1.6 ESE 19 24 10 13 1011.7 - 0.0
24/10:45am 22.8 23.4 20.3 86 1.6 E 17 22 9 12 1011.8 - 0.0

Latest Capital City Observations: Canberra | Sydney | Melbourne | Brisbane | Adelaide | Perth | Hobart | Darwin

Other Formats:

Comma delimited format used in spreadsheet applications
http://www.bom.gov.au/fwo/IDN60901/IDN60901.95757.axf

JavaScript Object Notation format (JSON) in row-major order
http://www.bom.gov.au/fwo/IDN60901/IDN60901.95757.json